Latest Coastal Weather Observations for Double Island Point

IDQ60701

Issued at 6:12 am EST Wednesday 4 May 2016 (issued every 10 minutes, with the page automatically refreshed every 10 minutes)

About coastal observations | Map of coastal stations | Coastal observations for QLD | Marine services | Other Formats
Station Details ID: 040068 Name: DOUBLE ISLAND POINT LIGHTHOUSE Lat: -25.93 Lon: 153.19 Height: 95.64 m
Data from the previous 72 hours. | See also: Recent months at Double Island Point
Date/Time
EST
Temp

°C
Wind Pressure Rain
since 9am
mm
Weather Cloud Vis
km
Sea
Height
m
Swell
Dir
 
Speed
knots
Gust
knots
hPa Trend Height
m
Period
s
Dir
04/06:00am 22.6 S 12 14 1014.1 - 0.0 - - - - - - -
04/05:30am 22.5 SSE 9 11 1013.7 - 0.0 - - - - - - -
04/05:00am 22.6 S 11 14 1013.3 - 0.0 - - - - - - -
04/04:30am 22.7 S 14 17 1013.1 - 0.0 - - - - - - -
04/04:00am 22.9 S 14 15 1012.8 - 0.0 - - - - - - -
04/03:30am 23.0 SSW 14 17 1012.7 - 0.0 - - - - - - -
04/03:00am 23.7 SW 11 12 1012.4 - 0.0 - - - - - - -
04/02:30am 23.0 W 9 11 1012.3 - 0.0 - - - - - - -
04/02:00am 22.7 WNW 12 14 1012.5 - 0.0 - - - - - - -
04/01:30am 22.6 WNW 11 13 1012.6 - 0.0 - - - - - - -
04/01:00am 22.7 WNW 11 13 1012.8 - 0.0 - - - - - - -
04/12:30am 22.7 NW 10 12 1013.3 - 0.0 - - - - - - -
04/12:00am 22.9 WNW 10 12 1013.2 - 0.0 - - - - - - -
 
Date/Time
EST
Temp

°C
Wind Pressure Rain
since 9am
mm
Weather Cloud Vis
km
Sea
Height
m
Swell
Dir
 
Speed
knots
Gust
knots
hPa Trend Height
m
Period
s
Dir
03/11:30pm 23.1 NW 10 12 1013.3 - 0.0 - - - - - - -
03/11:00pm 23.2 NW 9 12 1013.4 - 0.0 - - - - - - -
03/10:30pm 23.1 NW 11 13 1013.5 - 0.0 - - - - - - -
03/10:00pm 23.2 NW 9 11 1013.5 - 0.0 - - - - - - -
03/09:30pm 23.2 NNW 8 10 1013.6 - 0.0 - - - - - - -
03/09:00pm 23.2 NNW 9 12 1013.7 - 0.0 - - - - - - -
03/08:30pm 23.3 NNW 6 10 1013.6 - 0.0 - - - - - - -
03/08:00pm 23.3 N 4 8 1013.3 - 0.0 - - - - - - -
03/07:30pm 23.3 NNW 5 7 1013.1 - 0.0 - - - - - - -
03/07:00pm 23.2 N 3 5 1012.6 - 0.0 - - - - - - -
03/06:30pm 23.4 NNW 3 6 1012.3 - 0.0 - - - - - - -
03/06:00pm 23.7 N 3 5 1011.8 - 0.0 - - - - - - -
03/05:30pm 23.8 NNW 3 7 1011.5 - 0.0 - - - - - - -
03/05:00pm 24.1 N 3 7 1011.2 - 0.0 - - - - - - -
03/04:30pm 24.4 N 3 7 1011.2 - 0.0 - - - - - - -
03/04:00pm 25.0 NNW 2 6 1010.9 - 0.0 - - - - - - -
03/03:30pm 25.7 CALM 0 0 1010.8 - 0.0 - - - - - - -
03/03:00pm 27.1 NNW 6 8 1010.6 - 0.0 - - - - - - -
03/02:30pm 27.1 NNW 6 9 1010.6 - 0.0 - - - - - - -
03/02:00pm 26.7 NNW 10 13 1010.9 - 0.0 - - - - - - -
03/01:30pm 27.0 NNW 6 12 1011.2 - 0.0 - - - - - - -
03/01:00pm 28.0 NNW 7 11 1011.4 - 0.0 - - - - - - -
03/12:30pm 27.1 NNW 9 12 1011.9 - 0.0 - - - - - - -
03/12:00pm 25.4 NW 8 11 1012.5 - 0.0 - - - - - - -
03/11:30am 24.7 NW 11 13 1012.8 - 0.0 - - - - - - -
03/11:00am 24.9 NW 12 15 1013.4 - 0.0 - - - - - - -
03/10:30am 23.9 NW 13 15 1013.7 - 0.0 - - - - - - -
03/10:00am 23.5 NW 12 15 1014.1 - 0.0 - - - - - - -
03/09:30am 23.6 NW 11 13 1014.3 - 0.0 - - - - - - -
03/09:00am 22.4 NW 10 13 1014.5 - 2.6 - - - - - - -
03/08:30am 21.9 NW 11 13 1014.6 - 2.6 - - - - - - -
03/08:00am 21.9 NW 8 10 1014.5 - 2.6 - - - - - - -
03/07:30am 21.6 NNW 6 7 1014.4 - 2.6 - - - - - - -
03/07:00am 21.2 N 3 5 1014.2 - 2.6 - - - - - - -
03/06:30am 20.9 N 4 5 1014.1 - 2.6 - - - - - - -
03/06:00am 20.8 SSW 5 6 1013.9 - 2.6 - - - - - - -
03/05:30am 20.7 SW 8 10 1013.9 - 2.6 - - - - - - -
03/05:00am 20.9 NNW 3 5 1013.6 - 2.6 - - - - - - -
03/04:30am 20.9 E 5 6 1012.7 - 2.6 - - - - - - -
03/04:00am 20.7 SE 4 6 1013.3 - 2.6 - - - - - - -
03/03:30am 20.5 W 2 6 1013.6 - 2.6 - - - - - - -
03/03:00am 20.7 S 8 14 1013.1 - 2.6 Recent precip. - - - - - -
03/02:30am 20.5 WSW 14 17 1013.0 - 2.6 - - - - - - -
03/02:00am 20.3 W 13 22 1014.1 - 2.0 - - - - - - -
03/01:30am 22.4 WNW 13 18 1014.3 - 0.8 - - - - - - -
03/01:28am 22.4 WNW 12 18 1014.3 - 0.8 - - - - - - -
03/01:00am 22.6 NW 6 7 1014.8 - 0.2 - - - - - - -
03/12:30am 23.0 N 1 5 1015.0 - 0.0 - - - - - - -
03/12:00am 23.1 N 1 4 1015.2 - 0.0 - - - - - - -
 
Date/Time
EST
Temp

°C
Wind Pressure Rain
since 9am
mm
Weather Cloud Vis
km
Sea
Height
m
Swell
Dir
 
Speed
knots
Gust
knots
hPa Trend Height
m
Period
s
Dir
02/11:30pm 23.1 NNE 6 7 1015.1 - 0.0 - - - - - - -
02/11:00pm 23.1 NE 4 6 1015.3 - 0.0 - - - - - - -
02/10:30pm 23.1 NE 5 7 1015.8 - 0.0 - - - - - - -
02/10:00pm 23.2 ENE 5 7 1015.7 - 0.0 - - - - - - -
02/09:30pm 23.1 ENE 5 7 1015.8 - 0.0 - - - - - - -
02/09:00pm 23.0 ENE 7 8 1015.5 - 0.0 - - - - - - -
02/08:30pm 22.7 E 9 11 1015.4 - 0.0 - - - - - - -
02/08:00pm 22.9 ESE 8 9 1015.3 - 0.0 - - - - - - -
02/07:30pm 22.9 SE 9 10 1015.2 - 0.0 - - - - - - -
02/07:00pm 22.9 SE 8 9 1015.2 - 0.0 - - - - - - -
02/06:30pm 22.8 SSE 8 9 1015.0 - 0.0 - - - - - - -
02/06:00pm 22.8 SE 8 10 1014.4 - 0.0 - - - - - - -
02/05:30pm 22.8 SE 7 8 1014.1 - 0.0 - - - - - - -
02/05:00pm 22.9 SSE 8 9 1013.9 - 0.0 - - - - - - -
02/04:30pm 23.3 SE 9 9 1013.8 - 0.0 - - - - - - -
02/04:00pm 23.6 SE 9 11 1013.4 - 0.0 - - - - - - -
02/03:30pm 23.5 SE 10 11 1013.3 - 0.0 - - - - - - -
02/03:00pm 23.6 SE 10 11 1013.3 - 0.0 - - - - - - -
02/02:30pm 23.6 SSE 10 11 1013.5 - 0.0 - - - - - - -
02/02:00pm 23.9 SSE 9 11 1013.7 - 0.0 - - - - - - -
02/01:30pm 24.4 SE 8 10 1014.0 - 0.0 - - - - - - -
02/01:00pm 24.0 SSE 8 10 1014.3 - 0.0 - - - - - - -
02/12:30pm 24.3 SE 8 10 1014.8 - 0.0 - - - - - - -
02/12:00pm 24.4 SE 8 9 1015.4 - 0.0 - - - - - - -
02/11:30am 24.0 SE 5 7 1015.6 - 0.0 - - - - - - -
02/11:00am 24.0 SE 6 8 1016.0 - 0.0 - - - - - - -
02/10:30am 23.6 S 8 10 1016.6 - 0.0 - - - - - - -
02/10:00am 23.4 SSE 10 12 1016.7 - 0.0 - - - - - - -
02/09:30am 23.5 S 11 13 1017.2 - 0.0 - - - - - - -
02/09:00am 22.8 S 8 11 1017.1 - 0.4 - - - - - - -
02/08:30am 22.9 S 8 9 1016.9 - 0.4 - - - - - - -
02/08:00am 22.2 S 11 15 1016.6 - 0.4 - - - - - - -
02/07:30am 22.1 S 13 15 1016.4 - 0.4 - - - - - - -
02/07:00am 22.0 S 9 11 1016.2 - 0.4 - - - - - - -
02/06:30am 21.9 S 9 11 1016.0 - 0.4 - - - - - - -
02/06:00am 22.2 WSW 5 6 1015.5 - 0.4 - - - - - - -
02/05:30am 22.1 NW 7 8 1015.1 - 0.4 - - - - - - -
02/05:00am 22.1 NNW 5 7 1014.5 - 0.4 - - - - - - -
02/04:30am 22.0 NNW 3 5 1014.6 - 0.4 - - - - - - -
02/04:00am 22.1 N 3 4 1014.1 - 0.4 - - - - - - -
02/03:30am 22.0 SW 3 4 1014.5 - 0.4 - - - - - - -
02/03:00am 22.1 SSW 7 7 1015.0 - 0.4 - - - - - - -
02/02:30am 22.2 CALM 0 0 1014.9 - 0.4 - - - - - - -
02/02:00am 22.3 NNE 1 3 1014.9 - 0.4 - - - - - - -
02/01:30am 22.0 NNW 3 4 1015.3 - 0.4 - - - - - - -
02/01:00am 22.3 SW 4 5 1015.7 - 0.4 - - - - - - -
02/12:30am 22.2 SSW 8 10 1016.2 - 0.4 - - - - - - -
02/12:00am 22.2 SSW 9 11 1016.3 - 0.4 Recent precip. - - - - - -
 
Date/Time
EST
Temp

°C
Wind Pressure Rain
since 9am
mm
Weather Cloud Vis
km
Sea
Height
m
Swell
Dir
 
Speed
knots
Gust
knots
hPa Trend Height
m
Period
s
Dir
01/11:30pm 22.4 SSW 10 13 1016.8 - 0.4 - - - - - - -
01/11:00pm 22.4 S 9 11 1016.7 - 0.2 - - - - - - -
01/10:30pm 22.4 S 7 9 1016.7 - 0.2 - - - - - - -
01/10:00pm 22.4 S 6 7 1016.5 - 0.2 - - - - - - -
01/09:30pm 22.4 SSW 8 10 1016.7 - 0.2 - - - - - - -
01/09:00pm 22.4 SSE 6 7 1016.6 - 0.2 - - - - - - -
01/08:30pm 22.5 SSE 5 6 1016.5 - 0.2 - - - - - - -
01/08:00pm 22.5 S 6 7 1016.5 - 0.2 - - - - - - -
01/07:30pm 22.7 SSE 7 8 1016.3 - 0.2 - - - - - - -
01/07:00pm 22.7 SSE 9 11 1016.3 - 0.2 - - - - - - -
01/06:30pm 22.8 SSE 10 12 1016.3 - 0.2 - - - - - - -
01/06:00pm 23.5 E 3 7 1016.2 - 0.2 - - - - - - -
01/05:30pm 24.0 NE 2 4 1016.1 - 0.2 - - - - - - -
01/05:00pm 24.2 ENE 3 5 1015.8 - 0.2 - - - - - - -
01/04:30pm 24.7 NE 4 5 1015.4 - 0.2 - - - - - - -
01/04:00pm 25.5 NE 4 7 1014.9 - 0.2 - - - - - - -
01/03:30pm 26.3 NE 4 6 1014.6 - 0.2 - - - - - - -
01/03:00pm 25.9 NE 4 7 1014.5 - 0.2 - - - - - - -
01/02:30pm 27.5 NNE 7 9 1014.5 - 0.2 - - - - - - -
01/02:00pm 26.9 NNW 3 5 1014.4 - 0.2 - - - - - - -
01/01:30pm 27.2 NNW 3 7 1014.6 - 0.2 - - - - - - -
01/01:00pm 26.9 N 3 5 1015.1 - 0.2 - - - - - - -
01/12:30pm 27.9 N 3 5 1015.5 - 0.2 - - - - - - -
01/12:00pm 26.0 N 3 6 1015.7 - 0.2 - - - - - - -
01/11:30am 26.9 NNW 4 7 1016.2 - 0.2 - - - - - - -
01/11:00am 26.2 NNW 5 7 1016.7 - 0.2 - - - - - - -
01/10:30am 25.4 NNW 7 9 1017.5 - 0.2 - - - - - - -
01/10:00am 24.5 N 5 8 1017.8 - 0.2 - - - - - - -
01/09:30am 24.4 N 4 6 1017.8 - 0.2 - - - - - - -
01/09:00am 23.2 N 3 5 1018.1 - 40.4 Recent precip. - - - - - -
01/08:30am 22.6 N 4 7 1017.8 - 40.4 - - - - - - -
01/08:00am 22.1 N 7 18 1017.8 - 40.0 - - - - - - -
01/07:30am 22.5 NNE 9 14 1017.8 - 37.0 - - - - - - -
01/07:00am 22.2 NNE 12 19 1017.3 - 37.0 - - - - - - -
01/06:30am 22.4 NNE 9 11 1017.1 - 33.4 - - - - - - -

Other Formats:

Comma delimited format used in spreadsheet applications
http://www.bom.gov.au/fwo/IDQ60701/IDQ60701.94584.axf

JavaScript Object Notation format (JSON) in row-major order
http://www.bom.gov.au/fwo/IDQ60701/IDQ60701.94584.json